createdAt,value
2018-04-02T00:00:18.459Z,0.00
2018-04-02T00:01:18.494Z,0.00
2018-04-02T00:02:18.524Z,0.00
2018-04-02T00:03:18.566Z,0.00
2018-04-02T00:04:18.593Z,0.00
2018-04-02T00:05:18.617Z,0.00
2018-04-02T00:06:18.653Z,0.00
2018-04-02T00:07:18.684Z,0.00
2018-04-02T00:08:18.710Z,0.00
2018-04-02T00:09:18.766Z,0.00
2018-04-02T00:10:18.776Z,0.00
2018-04-02T00:11:18.807Z,0.00
2018-04-02T00:12:18.848Z,0.00
2018-04-02T00:13:18.868Z,0.00
2018-04-02T00:14:18.905Z,0.00
2018-04-02T00:15:18.937Z,0.00
2018-04-02T00:16:18.967Z,0.00
2018-04-02T00:17:18.996Z,0.00
2018-04-02T00:18:19.028Z,0.00
2018-04-02T00:19:19.060Z,0.00
2018-04-02T00:20:19.099Z,0.00
2018-04-02T00:21:19.118Z,0.00
2018-04-02T00:22:19.163Z,0.00
2018-04-02T00:23:19.182Z,0.00
2018-04-02T00:24:19.212Z,0.00
2018-04-02T00:25:19.241Z,0.00
2018-04-02T00:26:19.276Z,0.00
2018-04-02T00:27:19.310Z,0.00
2018-04-02T00:28:19.337Z,0.00
2018-04-02T00:29:19.366Z,0.00
2018-04-02T00:30:19.397Z,0.00
2018-04-02T00:31:19.428Z,0.00
2018-04-02T00:32:19.464Z,0.00
2018-04-02T00:33:19.561Z,0.00
2018-04-02T00:34:19.524Z,0.00
2018-04-02T00:35:19.557Z,0.00
2018-04-02T00:36:19.590Z,0.00
2018-04-02T00:37:19.618Z,0.00
2018-04-02T00:38:19.646Z,0.00
2018-04-02T00:39:19.678Z,0.00
2018-04-02T00:40:19.780Z,0.00
2018-04-02T00:41:19.742Z,0.00
2018-04-02T00:42:19.771Z,0.00
2018-04-02T00:43:19.801Z,0.00
2018-04-02T00:44:19.830Z,0.00
2018-04-02T00:45:19.879Z,0.00
2018-04-02T00:46:19.891Z,0.00
2018-04-02T00:47:19.935Z,0.00
2018-04-02T00:48:19.955Z,0.00
2018-04-02T00:49:19.991Z,0.00
2018-04-02T00:50:20.015Z,0.00
2018-04-02T00:51:20.057Z,0.00
2018-04-02T00:52:20.130Z,0.00
2018-04-02T00:53:20.110Z,0.00
2018-04-02T00:54:20.140Z,0.00
2018-04-02T00:55:20.169Z,0.00
2018-04-02T00:56:20.201Z,0.00
2018-04-02T00:57:20.230Z,0.00
2018-04-02T00:58:20.263Z,0.00
2018-04-02T00:59:20.294Z,0.00
2018-04-02T01:00:20.321Z,0.00
2018-04-02T01:01:20.355Z,0.00
2018-04-02T01:02:20.385Z,0.00
2018-04-02T01:03:20.415Z,0.00
2018-04-02T01:04:20.449Z,0.00
2018-04-02T01:05:20.483Z,0.00
2018-04-02T01:06:20.504Z,0.00
2018-04-02T01:07:20.543Z,0.00
2018-04-02T01:08:20.566Z,0.00
2018-04-02T01:09:20.701Z,0.00
2018-04-02T01:10:20.626Z,0.00
2018-04-02T01:11:20.663Z,0.00
2018-04-02T01:12:20.691Z,0.00
2018-04-02T01:13:20.717Z,0.00
2018-04-02T01:14:20.753Z,0.00
2018-04-02T01:15:20.782Z,0.00
2018-04-02T01:16:20.819Z,0.00
2018-04-02T01:17:20.841Z,0.00
2018-04-02T01:18:20.872Z,0.00
2018-04-02T01:19:20.904Z,0.00
2018-04-02T01:20:20.949Z,0.00
2018-04-02T01:21:20.962Z,0.00
2018-04-02T01:22:20.992Z,0.00
2018-04-02T01:23:21.025Z,0.00
2018-04-02T01:24:21.056Z,0.00
2018-04-02T01:25:21.085Z,0.00
2018-04-02T01:26:21.117Z,0.00
2018-04-02T01:27:21.147Z,0.00
2018-04-02T01:28:21.179Z,0.00
2018-04-02T01:29:21.206Z,0.00
2018-04-02T01:30:21.239Z,0.00
2018-04-02T01:31:21.270Z,0.00
2018-04-02T01:32:21.307Z,0.00
2018-04-02T01:33:21.335Z,0.00
2018-04-02T01:34:21.361Z,0.00
2018-04-02T01:35:21.394Z,0.00
2018-04-02T01:36:21.429Z,0.00
2018-04-02T01:37:21.460Z,0.00
2018-04-02T01:38:21.482Z,0.00
2018-04-02T01:39:21.515Z,0.00
2018-04-02T01:40:21.546Z,0.00
2018-04-02T01:41:21.575Z,0.00
2018-04-02T01:42:21.609Z,0.00
2018-04-02T01:43:21.638Z,0.00
2018-04-02T01:44:21.665Z,0.00
2018-04-02T01:45:21.698Z,0.00
2018-04-02T01:46:21.725Z,0.00
2018-04-02T01:47:21.755Z,0.00
2018-04-02T01:48:21.785Z,0.00
2018-04-02T01:49:21.816Z,0.00
2018-04-02T01:50:21.845Z,0.00
2018-04-02T01:51:21.876Z,0.00
2018-04-02T01:52:21.945Z,0.00
2018-04-02T01:53:21.948Z,0.00
2018-04-02T01:54:21.971Z,0.00
2018-04-02T01:55:21.998Z,0.00
2018-04-02T01:56:22.027Z,0.00
2018-04-02T01:57:22.070Z,0.00
2018-04-02T01:58:22.088Z,0.00
2018-04-02T01:59:22.138Z,0.00
2018-04-02T02:00:22.161Z,0.00
2018-04-02T02:01:22.184Z,0.00
2018-04-02T02:02:22.216Z,0.00
2018-04-02T02:03:22.246Z,0.00
2018-04-02T02:04:22.271Z,0.00
2018-04-02T02:05:22.308Z,0.00
2018-04-02T02:06:22.335Z,0.00
2018-04-02T02:07:22.369Z,0.00
2018-04-02T02:08:22.398Z,0.00
2018-04-02T02:09:22.428Z,0.00
2018-04-02T02:10:22.459Z,0.00
2018-04-02T02:11:22.486Z,0.00
2018-04-02T02:12:22.518Z,0.00
2018-04-02T02:13:22.554Z,0.00
2018-04-02T02:14:22.581Z,0.00
2018-04-02T02:15:22.611Z,0.00
2018-04-02T02:16:22.655Z,0.00
2018-04-02T02:17:22.671Z,0.00
2018-04-02T02:18:22.702Z,0.00
2018-04-02T02:19:22.732Z,0.00
2018-04-02T02:20:22.765Z,0.00
2018-04-02T02:21:22.797Z,0.00
2018-04-02T02:22:22.825Z,0.00
2018-04-02T02:23:22.915Z,0.00
2018-04-02T02:24:22.891Z,0.00
2018-04-02T02:25:22.920Z,0.00
2018-04-02T02:26:22.950Z,0.00
2018-04-02T02:27:22.979Z,0.00
2018-04-02T02:28:23.011Z,0.00
2018-04-02T02:29:23.040Z,0.00
2018-04-02T02:30:23.080Z,0.00
2018-04-02T02:31:23.105Z,0.00
2018-04-02T02:32:23.135Z,0.00
2018-04-02T02:33:23.163Z,0.00
2018-04-02T02:34:23.194Z,0.00
2018-04-02T02:35:23.236Z,0.00
2018-04-02T02:36:23.264Z,0.00
2018-04-02T02:37:23.291Z,0.00
2018-04-02T02:38:23.319Z,0.00
2018-04-02T02:39:23.351Z,0.00
2018-04-02T02:40:23.381Z,0.00
2018-04-02T02:41:23.410Z,0.00
2018-04-02T02:42:23.441Z,0.00
2018-04-02T02:43:23.472Z,0.00
2018-04-02T02:44:23.502Z,0.00
2018-04-02T02:45:23.534Z,0.00
2018-04-02T02:46:23.575Z,0.00
2018-04-02T02:47:23.595Z,0.00
2018-04-02T02:48:23.625Z,0.00
2018-04-02T02:49:23.658Z,0.00
2018-04-02T02:50:23.692Z,0.00
2018-04-02T02:51:23.721Z,0.00
2018-04-02T02:52:23.772Z,0.00
2018-04-02T02:53:23.782Z,0.00
2018-04-02T02:54:23.814Z,0.00
2018-04-02T02:55:23.842Z,0.00
2018-04-02T02:56:23.876Z,0.00
2018-04-02T02:57:23.904Z,0.00
2018-04-02T02:58:23.938Z,0.00
2018-04-02T02:59:24.069Z,0.00
2018-04-02T03:00:23.998Z,0.00
2018-04-02T03:01:24.027Z,0.00
2018-04-02T03:02:24.055Z,0.00
2018-04-02T03:03:24.096Z,0.00
2018-04-02T03:04:24.141Z,0.00
2018-04-02T03:05:24.149Z,0.00
2018-04-02T03:06:24.181Z,0.00
2018-04-02T03:07:24.228Z,0.00
2018-04-02T03:08:24.245Z,0.00
2018-04-02T03:09:24.275Z,0.00
2018-04-02T03:10:24.305Z,0.00
2018-04-02T03:11:24.335Z,0.00
2018-04-02T03:12:24.365Z,0.00
2018-04-02T03:13:24.395Z,0.00
2018-04-02T03:14:24.427Z,0.00
2018-04-02T03:15:24.457Z,0.00
2018-04-02T03:16:24.493Z,0.00
2018-04-02T03:17:24.521Z,0.00
2018-04-02T03:18:24.554Z,0.00
2018-04-02T03:19:24.598Z,0.00
2018-04-02T03:20:24.621Z,0.00
2018-04-02T03:21:24.648Z,0.00
2018-04-02T03:22:24.677Z,0.00
2018-04-02T03:23:24.706Z,0.00
2018-04-02T03:24:24.736Z,0.00
2018-04-02T03:25:24.780Z,0.00
2018-04-02T03:26:24.798Z,0.00
2018-04-02T03:27:24.830Z,0.00
2018-04-02T03:28:24.859Z,0.00
2018-04-02T03:29:24.891Z,0.00
2018-04-02T03:30:24.924Z,0.00
2018-04-02T03:31:24.953Z,0.00
2018-04-02T03:32:24.986Z,0.00
2018-04-02T03:33:25.017Z,0.00
2018-04-02T03:34:25.047Z,0.00
2018-04-02T03:35:25.077Z,0.00
2018-04-02T03:36:25.108Z,0.00
2018-04-02T03:37:25.138Z,0.00
2018-04-02T03:38:25.168Z,0.00
2018-04-02T03:39:25.197Z,0.00
2018-04-02T03:40:25.229Z,0.00
2018-04-02T03:41:25.259Z,0.00
2018-04-02T03:42:25.301Z,0.00
2018-04-02T03:43:25.322Z,0.00
2018-04-02T03:44:25.351Z,0.00
2018-04-02T03:45:25.383Z,0.00
2018-04-02T03:46:25.420Z,0.00
2018-04-02T03:47:25.444Z,0.00
2018-04-02T03:48:25.473Z,0.00
2018-04-02T03:49:25.504Z,0.00
2018-04-02T03:50:25.533Z,0.00
2018-04-02T03:51:25.567Z,0.00
2018-04-02T03:52:25.599Z,0.00
2018-04-02T03:53:25.629Z,0.00
2018-04-02T03:54:25.660Z,0.00
2018-04-02T03:55:25.690Z,0.00
2018-04-02T03:56:25.722Z,0.00
2018-04-02T03:57:25.752Z,0.00
2018-04-02T03:58:25.780Z,0.00
2018-04-02T03:59:25.846Z,0.00
2018-04-02T04:00:25.841Z,0.00
2018-04-02T04:01:25.870Z,0.00
2018-04-02T04:02:25.909Z,0.00
2018-04-02T04:03:25.933Z,0.00
2018-04-02T04:04:25.963Z,0.00
2018-04-02T04:05:25.991Z,0.00
2018-04-02T04:06:26.124Z,0.00
2018-04-02T04:07:26.057Z,0.00
2018-04-02T04:08:26.084Z,0.00
2018-04-02T04:09:26.114Z,0.00
2018-04-02T04:10:26.143Z,0.00
2018-04-02T04:11:26.175Z,0.00
2018-04-02T04:12:26.207Z,0.00
2018-04-02T04:13:26.237Z,0.00
2018-04-02T04:14:26.275Z,0.00
2018-04-02T04:15:26.295Z,0.00
2018-04-02T04:16:26.331Z,0.00
2018-04-02T04:17:26.357Z,0.00
2018-04-02T04:18:26.488Z,0.00
2018-04-02T04:19:26.422Z,0.00
2018-04-02T04:20:26.452Z,0.00
2018-04-02T04:21:26.484Z,0.00
2018-04-02T04:22:26.512Z,0.00
2018-04-02T04:23:26.540Z,0.00
2018-04-02T04:24:26.572Z,4.00
2018-04-02T04:25:26.607Z,4.00
2018-04-02T04:26:26.632Z,4.00
2018-04-02T04:27:26.664Z,4.00
2018-04-02T04:28:26.693Z,4.00
2018-04-02T04:29:26.723Z,4.00
2018-04-02T04:30:26.754Z,4.00
2018-04-02T04:31:26.782Z,4.00
2018-04-02T04:32:26.813Z,8.00
2018-04-02T04:33:26.844Z,12.00
2018-04-02T04:34:26.874Z,12.00
2018-04-02T04:35:26.934Z,16.00
2018-04-02T04:36:26.937Z,16.00
2018-04-02T04:37:26.967Z,20.00
2018-04-02T04:38:26.996Z,24.00
2018-04-02T04:39:27.029Z,28.00
2018-04-02T04:40:27.072Z,32.00
2018-04-02T04:41:27.087Z,40.00
2018-04-02T04:42:27.219Z,44.00
2018-04-02T04:43:27.151Z,56.00
2018-04-02T04:44:27.180Z,64.00
2018-04-02T04:45:27.208Z,76.00
2018-04-02T04:46:27.240Z,84.00
2018-04-02T04:47:27.271Z,104.00
2018-04-02T04:48:27.305Z,116.00
2018-04-02T04:49:27.335Z,128.00
2018-04-02T04:50:27.361Z,140.00
2018-04-02T04:51:27.391Z,160.00
2018-04-02T04:52:27.421Z,180.00
2018-04-02T04:53:27.451Z,196.00
2018-04-02T04:54:27.489Z,220.00
2018-04-02T04:55:27.511Z,244.00
2018-04-02T04:56:27.551Z,272.00
2018-04-02T04:57:27.572Z,300.00
2018-04-02T04:58:27.607Z,320.00
2018-04-02T04:59:27.692Z,352.00
2018-04-02T05:00:27.666Z,384.00
2018-04-02T05:01:27.699Z,416.00
2018-04-02T05:02:27.727Z,448.00
2018-04-02T05:03:27.758Z,480.00
2018-04-02T05:04:27.786Z,512.00
2018-04-02T05:05:27.816Z,552.00
2018-04-02T05:06:27.932Z,596.00
2018-04-02T05:07:27.876Z,640.00
2018-04-02T05:08:27.908Z,684.00
2018-04-02T05:09:27.937Z,736.00
2018-04-02T05:10:27.976Z,784.00
2018-04-02T05:11:27.998Z,820.00
2018-04-02T05:12:28.028Z,864.00
2018-04-02T05:13:28.057Z,920.00
2018-04-02T05:14:28.088Z,984.00
2018-04-02T05:15:28.119Z,1036.00
2018-04-02T05:16:28.151Z,1076.00
2018-04-02T05:17:28.179Z,1100.00
2018-04-02T05:18:28.284Z,1136.00
2018-04-02T05:19:28.242Z,1192.00
2018-04-02T05:20:28.271Z,1268.00
2018-04-02T05:21:28.303Z,1352.00
2018-04-02T05:22:28.332Z,1424.00
2018-04-02T05:23:28.362Z,1464.00
2018-04-02T05:24:28.391Z,1500.00
2018-04-02T05:25:28.435Z,1536.00
2018-04-02T05:26:28.452Z,1584.00
2018-04-02T05:27:28.483Z,1644.00
2018-04-02T05:28:28.519Z,1728.00
2018-04-02T05:29:28.545Z,1840.00
2018-04-02T05:30:28.576Z,1916.00
2018-04-02T05:31:28.605Z,1972.00
2018-04-02T05:32:28.635Z,1968.00
2018-04-02T05:33:28.684Z,1960.00
2018-04-02T05:34:28.694Z,1952.00
2018-04-02T05:35:28.743Z,2004.00
2018-04-02T05:36:28.760Z,2080.00
2018-04-02T05:37:28.787Z,2212.00
2018-04-02T05:38:28.821Z,2368.00
2018-04-02T05:39:28.851Z,2472.00
2018-04-02T05:40:28.881Z,2572.00
2018-04-02T05:41:28.910Z,2604.00
2018-04-02T05:42:28.962Z,2632.00
2018-04-02T05:43:28.972Z,2680.00
2018-04-02T05:44:29.002Z,2700.00
2018-04-02T05:45:29.032Z,2592.00
2018-04-02T05:46:29.064Z,2548.00
2018-04-02T05:47:29.091Z,2592.00
2018-04-02T05:48:29.122Z,2636.00
2018-04-02T05:49:29.151Z,2680.00
2018-04-02T05:50:29.181Z,2772.00
2018-04-02T05:51:29.215Z,2948.00
2018-04-02T05:52:29.245Z,3032.00
2018-04-02T05:53:29.276Z,2864.00
2018-04-02T05:54:29.306Z,2480.00
2018-04-02T05:55:29.335Z,2360.00
2018-04-02T05:56:29.366Z,2500.00
2018-04-02T05:57:29.399Z,2552.00
2018-04-02T05:58:29.429Z,2732.00
2018-04-02T05:59:29.464Z,2884.00
2018-04-02T06:00:29.494Z,2996.00
2018-04-02T06:01:29.521Z,3060.00
2018-04-02T06:02:29.555Z,3044.00
2018-04-02T06:03:29.584Z,3076.00
2018-04-02T06:04:29.615Z,3160.00
2018-04-02T06:05:29.644Z,3376.00
2018-04-02T06:06:29.674Z,3528.00
2018-04-02T06:07:29.707Z,3572.00
2018-04-02T06:08:29.740Z,3576.00
2018-04-02T06:09:29.767Z,3600.00
2018-04-02T06:10:29.830Z,3576.00
2018-04-02T06:11:29.843Z,3460.00
2018-04-02T06:12:29.859Z,3472.00
2018-04-02T06:13:29.892Z,3756.00
2018-04-02T06:14:29.922Z,3832.00
2018-04-02T06:15:29.963Z,3880.00
2018-04-02T06:16:29.986Z,3792.00
2018-04-02T06:17:30.015Z,3764.00
2018-04-02T06:18:30.138Z,3692.00
2018-04-02T06:19:30.075Z,3736.00
2018-04-02T06:20:30.110Z,3940.00
2018-04-02T06:21:30.138Z,4076.00
2018-04-02T06:22:30.168Z,4468.00
2018-04-02T06:23:30.201Z,4820.00
2018-04-02T06:24:30.235Z,4852.00
2018-04-02T06:25:30.282Z,5100.00
2018-04-02T06:26:30.296Z,5024.00
2018-04-02T06:27:30.327Z,4784.00
2018-04-02T06:28:30.357Z,4560.00
2018-04-02T06:29:30.386Z,4348.00
2018-04-02T06:30:30.417Z,4420.00
2018-04-02T06:31:30.450Z,4944.00
2018-04-02T06:32:30.479Z,5292.00
2018-04-02T06:33:30.510Z,5716.00
2018-04-02T06:34:30.542Z,6064.00
2018-04-02T06:35:30.572Z,6124.00
2018-04-02T06:36:30.607Z,6148.00
2018-04-02T06:37:30.636Z,7020.00
2018-04-02T06:38:30.667Z,7604.00
2018-04-02T06:39:30.699Z,7068.00
2018-04-02T06:40:30.730Z,6860.00
2018-04-02T06:41:30.764Z,6932.00
2018-04-02T06:42:30.798Z,8332.00
2018-04-02T06:43:30.829Z,8472.00
2018-04-02T06:44:30.860Z,8116.00
2018-04-02T06:45:30.887Z,7328.00
2018-04-02T06:46:30.922Z,7488.00
2018-04-02T06:47:30.951Z,8004.00
2018-04-02T06:48:30.984Z,8196.00
2018-04-02T06:49:31.116Z,7652.00
2018-04-02T06:50:31.046Z,7432.00
2018-04-02T06:51:31.079Z,7420.00
2018-04-02T06:52:31.111Z,7228.00
2018-04-02T06:53:31.140Z,7336.00
2018-04-02T06:54:31.171Z,7716.00
2018-04-02T06:55:31.206Z,7552.00
2018-04-02T06:56:31.236Z,7092.00
2018-04-02T06:57:31.269Z,6668.00
2018-04-02T06:58:31.299Z,6600.00
2018-04-02T06:59:31.334Z,6648.00
2018-04-02T07:00:31.367Z,6324.00
2018-04-02T07:01:31.395Z,6288.00
2018-04-02T07:02:31.430Z,6516.00
2018-04-02T07:03:31.462Z,6776.00
2018-04-02T07:04:31.522Z,7256.00
2018-04-02T07:05:31.523Z,7492.00
2018-04-02T07:06:31.555Z,7584.00
2018-04-02T07:07:31.590Z,7840.00
2018-04-02T07:08:31.654Z,8136.00
2018-04-02T07:09:31.651Z,8320.00
2018-04-02T07:10:31.691Z,8700.00
2018-04-02T07:11:31.716Z,9252.00
2018-04-02T07:12:31.751Z,9608.00
2018-04-02T07:13:31.782Z,9720.00
2018-04-02T07:14:31.815Z,9692.00
2018-04-02T07:15:31.848Z,9708.00
2018-04-02T07:16:31.897Z,9736.00
2018-04-02T07:17:31.912Z,9608.00
2018-04-02T07:18:31.945Z,9432.00
2018-04-02T07:19:31.979Z,9276.00
2018-04-02T07:20:32.018Z,9136.00
2018-04-02T07:21:32.042Z,9192.00
2018-04-02T07:22:32.087Z,8828.00
2018-04-02T07:23:32.108Z,8712.00
2018-04-02T07:24:32.142Z,8720.00
2018-04-02T07:25:32.175Z,8828.00
2018-04-02T07:26:32.208Z,8788.00
2018-04-02T07:27:32.242Z,8776.00
2018-04-02T07:28:32.274Z,8912.00
2018-04-02T07:29:32.358Z,9000.00
2018-04-02T07:30:32.345Z,9052.00
2018-04-02T07:31:32.375Z,9180.00
2018-04-02T07:32:32.421Z,9464.00
2018-04-02T07:33:32.440Z,9328.00
2018-04-02T07:34:32.474Z,9360.00
2018-04-02T07:35:32.506Z,9368.00
2018-04-02T07:36:32.539Z,8900.00
2018-04-02T07:37:32.575Z,8908.00
2018-04-02T07:38:32.607Z,9376.00
2018-04-02T07:39:32.682Z,9644.00
2018-04-02T07:40:32.675Z,10128.00
2018-04-02T07:41:32.707Z,11476.00
2018-04-02T07:42:32.739Z,12964.00
2018-04-02T07:43:32.798Z,12812.00
2018-04-02T07:44:32.808Z,12156.00
2018-04-02T07:45:32.846Z,11436.00
2018-04-02T07:46:32.876Z,11988.00
2018-04-02T07:47:32.910Z,11908.00
2018-04-02T07:48:32.945Z,12244.00
2018-04-02T07:49:32.978Z,12396.00
2018-04-02T07:50:33.060Z,12512.00
2018-04-02T07:51:33.049Z,12876.00
2018-04-02T07:52:33.088Z,13120.00
2018-04-02T07:53:33.117Z,13228.00
2018-04-02T07:54:33.155Z,13112.00
2018-04-02T07:55:33.188Z,13100.00
2018-04-02T07:56:33.226Z,13156.00
2018-04-02T07:57:33.253Z,12920.00
2018-04-02T07:58:33.346Z,12384.00
2018-04-02T07:59:33.323Z,11552.00
2018-04-02T08:00:33.358Z,10764.00
2018-04-02T08:01:33.393Z,10208.00
2018-04-02T08:02:33.429Z,9808.00
2018-04-02T08:03:33.471Z,9732.00
2018-04-02T08:04:33.499Z,9576.00
2018-04-02T08:05:33.557Z,9864.00
2018-04-02T08:06:33.571Z,10192.00
2018-04-02T08:07:33.602Z,10132.00
2018-04-02T08:08:33.666Z,9620.00
2018-04-02T08:09:33.691Z,9208.00
2018-04-02T08:10:33.709Z,9268.00
2018-04-02T08:11:33.752Z,9512.00
2018-04-02T08:12:33.781Z,9804.00
2018-04-02T08:13:33.812Z,10308.00
2018-04-02T08:14:33.856Z,10832.00
2018-04-02T08:15:33.884Z,11344.00
2018-04-02T08:16:33.919Z,11592.00
2018-04-02T08:17:33.954Z,11544.00
2018-04-02T08:18:33.992Z,11600.00
2018-04-02T08:19:34.025Z,11764.00
2018-04-02T08:20:34.065Z,12076.00
2018-04-02T08:21:34.105Z,12268.00
2018-04-02T08:22:34.133Z,12416.00
2018-04-02T08:23:34.170Z,12656.00
2018-04-02T08:24:34.202Z,12968.00
2018-04-02T08:25:34.238Z,13272.00
2018-04-02T08:26:34.276Z,13576.00
2018-04-02T08:27:34.309Z,13740.00
2018-04-02T08:28:34.345Z,13648.00
2018-04-02T08:29:34.393Z,13712.00
2018-04-02T08:30:34.415Z,13936.00
2018-04-02T08:31:34.452Z,13980.00
2018-04-02T08:32:34.573Z,14108.00
2018-04-02T08:33:34.524Z,14144.00
2018-04-02T08:34:34.562Z,13896.00
2018-04-02T08:35:34.595Z,13416.00
2018-04-02T08:36:34.683Z,13296.00
2018-04-02T08:37:34.666Z,13468.00
2018-04-02T08:38:34.705Z,13616.00
2018-04-02T08:39:34.743Z,13628.00
2018-04-02T08:40:34.783Z,13660.00
2018-04-02T08:41:34.812Z,13868.00
2018-04-02T08:42:34.848Z,13816.00
2018-04-02T08:43:34.890Z,13600.00
2018-04-02T08:44:34.923Z,13764.00
2018-04-02T08:45:34.959Z,14388.00
2018-04-02T08:46:35.010Z,14324.00
2018-04-02T08:47:35.033Z,13900.00
2018-04-02T08:48:35.072Z,13592.00
2018-04-02T08:49:35.102Z,13628.00
2018-04-02T08:50:35.143Z,13760.00
2018-04-02T08:51:35.179Z,14156.00
2018-04-02T08:52:35.214Z,14420.00
2018-04-02T08:53:35.302Z,14580.00
2018-04-02T08:54:35.295Z,14728.00
2018-04-02T08:55:35.378Z,14440.00
2018-04-02T08:56:35.364Z,14184.00
2018-04-02T08:57:35.398Z,14084.00
2018-04-02T08:58:35.438Z,13844.00
2018-04-02T08:59:35.476Z,13660.00
2018-04-02T09:00:35.544Z,13320.00
2018-04-02T09:01:35.545Z,12900.00
2018-04-02T09:02:35.584Z,12528.00
2018-04-02T09:03:35.618Z,12148.00
2018-04-02T09:04:35.654Z,11508.00
2018-04-02T09:05:35.690Z,10884.00
2018-04-02T09:06:35.726Z,10508.00
2018-04-02T09:07:35.766Z,10268.00
2018-04-02T09:08:35.804Z,10632.00
2018-04-02T09:09:35.946Z,10976.00
2018-04-02T09:10:35.877Z,11904.00
2018-04-02T09:11:35.913Z,13008.00
2018-04-02T09:12:35.947Z,13320.00
2018-04-02T09:13:35.986Z,13084.00
2018-04-02T09:14:36.021Z,13464.00
2018-04-02T09:15:36.059Z,13756.00
2018-04-02T09:16:36.127Z,12404.00
2018-04-02T09:17:36.135Z,10932.00
2018-04-02T09:18:36.169Z,10268.00
2018-04-02T09:19:36.207Z,10140.00
2018-04-02T09:20:36.244Z,10332.00
2018-04-02T09:21:36.284Z,10760.00
2018-04-02T09:22:36.321Z,10944.00
2018-04-02T09:23:36.363Z,10176.00
2018-04-02T09:24:36.400Z,9688.00
2018-04-02T09:25:36.428Z,9148.00
2018-04-02T09:26:36.464Z,9024.00
2018-04-02T09:27:36.502Z,9304.00
2018-04-02T09:28:36.542Z,9536.00
2018-04-02T09:29:36.577Z,9468.00
2018-04-02T09:30:36.616Z,9360.00
2018-04-02T09:31:36.650Z,10192.00
2018-04-02T09:32:36.689Z,11712.00
2018-04-02T09:33:36.723Z,13500.00
2018-04-02T09:34:36.759Z,15144.00
2018-04-02T09:35:36.807Z,15868.00
2018-04-02T09:36:36.839Z,14624.00
2018-04-02T09:37:36.876Z,13300.00
2018-04-02T09:38:36.919Z,13344.00
2018-04-02T09:39:36.956Z,13632.00
2018-04-02T09:40:36.989Z,13708.00
2018-04-02T09:41:37.022Z,13680.00
2018-04-02T09:42:37.065Z,13348.00
2018-04-02T09:43:37.098Z,13576.00
2018-04-02T09:44:37.134Z,14096.00
2018-04-02T09:45:37.172Z,14180.00
2018-04-02T09:46:37.210Z,14028.00
2018-04-02T09:47:37.249Z,14048.00
2018-04-02T09:48:37.285Z,14224.00
2018-04-02T09:49:37.331Z,13912.00
2018-04-02T09:50:37.364Z,12744.00
2018-04-02T09:51:37.407Z,11588.00
2018-04-02T09:52:37.436Z,10864.00
2018-04-02T09:53:37.471Z,10844.00
2018-04-02T09:54:37.510Z,11300.00
2018-04-02T09:55:37.569Z,11588.00
2018-04-02T09:56:37.599Z,11676.00
2018-04-02T09:57:37.623Z,11344.00
2018-04-02T09:58:37.662Z,10948.00
2018-04-02T09:59:37.695Z,11344.00
2018-04-02T10:00:37.736Z,11844.00
2018-04-02T10:01:37.771Z,12180.00
2018-04-02T10:02:37.812Z,11884.00
2018-04-02T10:03:37.860Z,12008.00
2018-04-02T10:04:38.049Z,12356.00
2018-04-02T10:05:37.921Z,12732.00
2018-04-02T10:06:37.961Z,13352.00
2018-04-02T10:07:38.048Z,14008.00
2018-04-02T10:08:38.042Z,14628.00
2018-04-02T10:09:38.075Z,14724.00
2018-04-02T10:10:38.112Z,15156.00
2018-04-02T10:11:38.147Z,15556.00
2018-04-02T10:12:38.185Z,16276.00
2018-04-02T10:13:38.226Z,17280.00
2018-04-02T10:14:38.259Z,18240.00
2018-04-02T10:15:38.355Z,17984.00
2018-04-02T10:16:38.334Z,17280.00
2018-04-02T10:17:38.391Z,17376.00
2018-04-02T10:18:38.410Z,17216.00
2018-04-02T10:19:38.453Z,17920.00
2018-04-02T10:20:38.495Z,17728.00
2018-04-02T10:21:38.534Z,16736.00
2018-04-02T10:22:38.560Z,13940.00
2018-04-02T10:23:38.596Z,12208.00
2018-04-02T10:24:38.633Z,11292.00
2018-04-02T10:25:38.673Z,10620.00
2018-04-02T10:26:38.717Z,10032.00
2018-04-02T10:27:38.747Z,9956.00
2018-04-02T10:28:38.783Z,9840.00
2018-04-02T10:29:38.837Z,9876.00
2018-04-02T10:30:38.859Z,9960.00
2018-04-02T10:31:38.897Z,9952.00
2018-04-02T10:32:38.946Z,10160.00
2018-04-02T10:33:38.974Z,10248.00
2018-04-02T10:34:39.018Z,10328.00
2018-04-02T10:35:39.049Z,10404.00
2018-04-02T10:36:39.111Z,10360.00
2018-04-02T10:37:39.126Z,10244.00
2018-04-02T10:38:39.166Z,10260.00
2018-04-02T10:39:39.201Z,10520.00
2018-04-02T10:40:39.239Z,10804.00
2018-04-02T10:41:39.290Z,11340.00
2018-04-02T10:42:39.323Z,12028.00
2018-04-02T10:43:39.354Z,12544.00
2018-04-02T10:44:39.391Z,12520.00
2018-04-02T10:45:39.428Z,11424.00
2018-04-02T10:46:39.465Z,10984.00
2018-04-02T10:47:39.519Z,12284.00
2018-04-02T10:48:39.619Z,13888.00
2018-04-02T10:49:39.579Z,14676.00
2018-04-02T10:50:39.616Z,14132.00
2018-04-02T10:51:39.656Z,14852.00
2018-04-02T10:52:39.691Z,14048.00
2018-04-02T10:53:39.737Z,12860.00
2018-04-02T10:54:39.786Z,11884.00
2018-04-02T10:55:39.828Z,11668.00
2018-04-02T10:56:39.846Z,12092.00
2018-04-02T10:57:39.882Z,13508.00
2018-04-02T10:58:39.920Z,14536.00
2018-04-02T10:59:40.007Z,14936.00
2018-04-02T11:00:39.997Z,15628.00
2018-04-02T11:01:40.032Z,15680.00
2018-04-02T11:02:40.088Z,14864.00
2018-04-02T11:03:40.108Z,13056.00
2018-04-02T11:04:40.151Z,11428.00
2018-04-02T11:05:40.230Z,10568.00
2018-04-02T11:06:40.226Z,10544.00
2018-04-02T11:07:40.270Z,10804.00
2018-04-02T11:08:40.299Z,11384.00
2018-04-02T11:09:40.336Z,11992.00
2018-04-02T11:10:40.377Z,12948.00
2018-04-02T11:11:40.413Z,14132.00
2018-04-02T11:12:40.451Z,15624.00
2018-04-02T11:13:40.500Z,16864.00
2018-04-02T11:14:40.591Z,16672.00
2018-04-02T11:15:40.567Z,15512.00
2018-04-02T11:16:40.608Z,15024.00
2018-04-02T11:17:40.646Z,15244.00
2018-04-02T11:18:40.681Z,15852.00
2018-04-02T11:19:40.727Z,16672.00
2018-04-02T11:20:40.759Z,17792.00
2018-04-02T11:21:40.805Z,18784.00
2018-04-02T11:22:40.833Z,18944.00
2018-04-02T11:23:40.892Z,18400.00
2018-04-02T11:24:40.910Z,18560.00
2018-04-02T11:25:40.949Z,19264.00
2018-04-02T11:26:40.991Z,19008.00
2018-04-02T11:27:41.027Z,18176.00
2018-04-02T11:28:41.064Z,17760.00
2018-04-02T11:29:41.101Z,17920.00
2018-04-02T11:30:41.142Z,18560.00
2018-04-02T11:31:41.182Z,19360.00
2018-04-02T11:32:41.222Z,19584.00
2018-04-02T11:33:41.257Z,18880.00
2018-04-02T11:34:41.303Z,18016.00
2018-04-02T11:35:41.339Z,16736.00
2018-04-02T11:36:41.383Z,15420.00
2018-04-02T11:37:41.411Z,14712.00
2018-04-02T11:38:41.459Z,13832.00
2018-04-02T11:39:41.493Z,13308.00
2018-04-02T11:40:41.537Z,13096.00
2018-04-02T11:41:41.570Z,13196.00
2018-04-02T11:42:41.612Z,13068.00
2018-04-02T11:43:41.653Z,12732.00
2018-04-02T11:44:41.695Z,11908.00
2018-04-02T11:45:41.725Z,11544.00
2018-04-02T11:46:41.765Z,11080.00
2018-04-02T11:47:41.809Z,11260.00
2018-04-02T11:48:41.843Z,11752.00
2018-04-02T11:49:41.892Z,10860.00
2018-04-02T11:50:41.922Z,11636.00
2018-04-02T11:51:41.967Z,12056.00
2018-04-02T11:52:42.005Z,11428.00
2018-04-02T11:53:42.044Z,10792.00
2018-04-02T11:54:42.083Z,10720.00
2018-04-02T11:55:42.118Z,11396.00
2018-04-02T11:56:42.156Z,12124.00
2018-04-02T11:57:42.193Z,12656.00
2018-04-02T11:58:42.250Z,12556.00
2018-04-02T11:59:42.274Z,12040.00
2018-04-02T12:00:42.315Z,11448.00
2018-04-02T12:01:42.356Z,10892.00
2018-04-02T12:02:42.388Z,10696.00
2018-04-02T12:03:42.427Z,11148.00
2018-04-02T12:04:42.465Z,11624.00
2018-04-02T12:05:42.513Z,12648.00
2018-04-02T12:06:42.544Z,14080.00
2018-04-02T12:07:42.586Z,14740.00
2018-04-02T12:08:42.661Z,15184.00
2018-04-02T12:09:42.669Z,15160.00
2018-04-02T12:10:42.699Z,14508.00
2018-04-02T12:11:42.738Z,13872.00
2018-04-02T12:12:42.776Z,13648.00
2018-04-02T12:13:42.822Z,13328.00
2018-04-02T12:14:42.860Z,12960.00
2018-04-02T12:15:42.996Z,13280.00
2018-04-02T12:16:42.932Z,14056.00
2018-04-02T12:17:42.974Z,14656.00
2018-04-02T12:18:43.018Z,14560.00
2018-04-02T12:19:43.047Z,14232.00
2018-04-02T12:20:43.092Z,14152.00
2018-04-02T12:21:43.126Z,14104.00
2018-04-02T12:22:43.170Z,13976.00
2018-04-02T12:23:43.207Z,12956.00
2018-04-02T12:24:43.256Z,12092.00